sensor_id;sensor_type;location;lat;lon;timestamp;P1;durP1;ratioP1;P2;durP2;ratioP2
56269;SDS011;42176;43.240;27.880;2024-03-29T00:00:51;9.07;;;3.40;;
56269;SDS011;42176;43.240;27.880;2024-03-29T00:02:52;14.87;;;3.83;;
56269;SDS011;42176;43.240;27.880;2024-03-29T00:04:52;15.30;;;4.03;;
56269;SDS011;42176;43.240;27.880;2024-03-29T00:06:53;19.63;;;4.23;;
56269;SDS011;42176;43.240;27.880;2024-03-29T00:08:53;16.67;;;4.00;;
56269;SDS011;42176;43.240;27.880;2024-03-29T00:10:54;21.97;;;4.43;;
56269;SDS011;42176;43.240;27.880;2024-03-29T00:12:54;13.40;;;3.67;;
56269;SDS011;42176;43.240;27.880;2024-03-29T00:14:55;13.57;;;4.67;;
56269;SDS011;42176;43.240;27.880;2024-03-29T00:16:56;23.17;;;3.80;;
56269;SDS011;42176;43.240;27.880;2024-03-29T00:18:57;16.00;;;3.43;;
56269;SDS011;42176;43.240;27.880;2024-03-29T00:20:57;12.30;;;4.57;;
56269;SDS011;42176;43.240;27.880;2024-03-29T00:22:58;18.30;;;3.80;;
56269;SDS011;42176;43.240;27.880;2024-03-29T00:24:58;16.97;;;3.87;;
56269;SDS011;42176;43.240;27.880;2024-03-29T00:26:59;25.77;;;4.10;;
56269;SDS011;42176;43.240;27.880;2024-03-29T00:28:59;21.67;;;4.37;;
56269;SDS011;42176;43.240;27.880;2024-03-29T00:31:00;20.53;;;3.70;;
56269;SDS011;42176;43.240;27.880;2024-03-29T00:33:00;19.27;;;4.13;;
56269;SDS011;42176;43.240;27.880;2024-03-29T00:35:01;16.07;;;3.97;;
56269;SDS011;42176;43.240;27.880;2024-03-29T00:37:02;16.40;;;3.70;;
56269;SDS011;42176;43.240;27.880;2024-03-29T00:39:03;16.17;;;3.63;;
56269;SDS011;42176;43.240;27.880;2024-03-29T00:41:04;17.02;;;3.83;;
56269;SDS011;42176;43.240;27.880;2024-03-29T00:43:05;18.80;;;5.35;;
56269;SDS011;42176;43.240;27.880;2024-03-29T00:45:06;20.90;;;4.87;;
56269;SDS011;42176;43.240;27.880;2024-03-29T00:47:07;12.77;;;4.22;;
56269;SDS011;42176;43.240;27.880;2024-03-29T00:49:08;13.20;;;4.43;;
56269;SDS011;42176;43.240;27.880;2024-03-29T00:51:09;17.50;;;4.30;;
56269;SDS011;42176;43.240;27.880;2024-03-29T00:53:09;32.03;;;4.70;;
56269;SDS011;42176;43.240;27.880;2024-03-29T00:55:10;25.90;;;4.63;;
56269;SDS011;42176;43.240;27.880;2024-03-29T00:57:10;16.80;;;4.93;;
56269;SDS011;42176;43.240;27.880;2024-03-29T00:59:13;24.52;;;4.35;;
56269;SDS011;42176;43.240;27.880;2024-03-29T01:01:13;15.03;;;3.80;;
56269;SDS011;42176;43.240;27.880;2024-03-29T01:03:14;20.50;;;5.23;;
56269;SDS011;42176;43.240;27.880;2024-03-29T01:05:14;17.60;;;5.10;;
56269;SDS011;42176;43.240;27.880;2024-03-29T01:07:15;25.03;;;5.03;;
56269;SDS011;42176;43.240;27.880;2024-03-29T01:09:17;22.40;;;4.38;;
56269;SDS011;42176;43.240;27.880;2024-03-29T01:11:18;21.20;;;4.50;;
56269;SDS011;42176;43.240;27.880;2024-03-29T01:13:18;22.23;;;4.40;;
56269;SDS011;42176;43.240;27.880;2024-03-29T01:15:19;24.20;;;5.35;;
56269;SDS011;42176;43.240;27.880;2024-03-29T01:17:20;16.83;;;4.03;;
56269;SDS011;42176;43.240;27.880;2024-03-29T01:19:20;22.73;;;5.17;;
56269;SDS011;42176;43.240;27.880;2024-03-29T01:21:21;26.93;;;5.10;;
56269;SDS011;42176;43.240;27.880;2024-03-29T01:23:22;18.60;;;4.13;;
56269;SDS011;42176;43.240;27.880;2024-03-29T01:25:22;16.40;;;5.93;;
56269;SDS011;42176;43.240;27.880;2024-03-29T01:27:24;20.35;;;4.20;;
56269;SDS011;42176;43.240;27.880;2024-03-29T01:29:25;27.70;;;5.23;;
56269;SDS011;42176;43.240;27.880;2024-03-29T01:31:25;30.63;;;5.47;;
56269;SDS011;42176;43.240;27.880;2024-03-29T01:33:26;29.77;;;5.47;;
56269;SDS011;42176;43.240;27.880;2024-03-29T01:35:27;28.17;;;5.13;;
56269;SDS011;42176;43.240;27.880;2024-03-29T01:37:27;18.57;;;5.10;;
56269;SDS011;42176;43.240;27.880;2024-03-29T01:39:28;32.77;;;4.60;;
56269;SDS011;42176;43.240;27.880;2024-03-29T01:41:31;18.33;;;4.70;;
56269;SDS011;42176;43.240;27.880;2024-03-29T01:43:32;26.30;;;5.40;;
56269;SDS011;42176;43.240;27.880;2024-03-29T01:45:32;27.50;;;4.77;;
56269;SDS011;42176;43.240;27.880;2024-03-29T01:47:38;27.92;;;4.53;;
56269;SDS011;42176;43.240;27.880;2024-03-29T01:49:40;25.17;;;5.13;;
56269;SDS011;42176;43.240;27.880;2024-03-29T01:51:41;25.33;;;7.03;;
56269;SDS011;42176;43.240;27.880;2024-03-29T01:53:43;22.20;;;5.22;;
56269;SDS011;42176;43.240;27.880;2024-03-29T01:55:45;26.25;;;4.70;;
56269;SDS011;42176;43.240;27.880;2024-03-29T01:57:46;33.65;;;5.00;;
56269;SDS011;42176;43.240;27.880;2024-03-29T01:59:46;27.13;;;5.33;;
56269;SDS011;42176;43.240;27.880;2024-03-29T02:01:47;27.83;;;5.78;;
56269;SDS011;42176;43.240;27.880;2024-03-29T02:03:49;34.10;;;5.95;;
56269;SDS011;42176;43.240;27.880;2024-03-29T02:05:51;25.88;;;5.13;;
56269;SDS011;42176;43.240;27.880;2024-03-29T02:09:54;33.20;;;5.05;;
56269;SDS011;42176;43.240;27.880;2024-03-29T02:11:55;38.27;;;5.50;;
56269;SDS011;42176;43.240;27.880;2024-03-29T02:13:56;30.80;;;5.60;;
56269;SDS011;42176;43.240;27.880;2024-03-29T02:15:57;31.05;;;5.43;;
56269;SDS011;42176;43.240;27.880;2024-03-29T02:17:58;36.45;;;5.40;;
56269;SDS011;42176;43.240;27.880;2024-03-29T02:19:58;43.40;;;5.27;;
56269;SDS011;42176;43.240;27.880;2024-03-29T02:21:59;26.80;;;5.60;;
56269;SDS011;42176;43.240;27.880;2024-03-29T02:24:05;39.95;;;5.72;;
56269;SDS011;42176;43.240;27.880;2024-03-29T02:26:06;29.13;;;5.63;;
56269;SDS011;42176;43.240;27.880;2024-03-29T02:28:07;32.83;;;5.00;;
56269;SDS011;42176;43.240;27.880;2024-03-29T02:30:08;28.70;;;6.00;;
56269;SDS011;42176;43.240;27.880;2024-03-29T02:32:10;46.83;;;5.97;;
56269;SDS011;42176;43.240;27.880;2024-03-29T02:34:10;27.25;;;5.70;;
56269;SDS011;42176;43.240;27.880;2024-03-29T02:36:11;18.03;;;5.23;;
56269;SDS011;42176;43.240;27.880;2024-03-29T02:38:13;32.53;;;7.18;;
56269;SDS011;42176;43.240;27.880;2024-03-29T02:40:14;27.57;;;5.87;;
56269;SDS011;42176;43.240;27.880;2024-03-29T02:42:15;34.97;;;6.47;;
56269;SDS011;42176;43.240;27.880;2024-03-29T02:44:15;28.83;;;5.23;;
56269;SDS011;42176;43.240;27.880;2024-03-29T02:46:16;30.27;;;5.47;;
56269;SDS011;42176;43.240;27.880;2024-03-29T02:48:18;36.03;;;7.20;;
56269;SDS011;42176;43.240;27.880;2024-03-29T02:50:19;27.73;;;5.30;;
56269;SDS011;42176;43.240;27.880;2024-03-29T02:52:19;22.30;;;5.87;;
56269;SDS011;42176;43.240;27.880;2024-03-29T02:54:20;35.53;;;6.17;;
56269;SDS011;42176;43.240;27.880;2024-03-29T02:56:20;26.40;;;6.43;;
56269;SDS011;42176;43.240;27.880;2024-03-29T02:58:23;34.40;;;6.25;;
56269;SDS011;42176;43.240;27.880;2024-03-29T03:00:24;30.03;;;6.70;;
56269;SDS011;42176;43.240;27.880;2024-03-29T03:02:24;24.23;;;5.30;;
56269;SDS011;42176;43.240;27.880;2024-03-29T03:04:25;27.27;;;5.00;;
56269;SDS011;42176;43.240;27.880;2024-03-29T03:06:25;21.87;;;4.50;;
56269;SDS011;42176;43.240;27.880;2024-03-29T03:08:26;19.70;;;4.80;;
56269;SDS011;42176;43.240;27.880;2024-03-29T03:10:48;27.08;;;4.93;;
56269;SDS011;42176;43.240;27.880;2024-03-29T03:12:59;27.02;;;4.95;;
56269;SDS011;42176;43.240;27.880;2024-03-29T03:15:00;28.47;;;4.67;;
56269;SDS011;42176;43.240;27.880;2024-03-29T03:17:00;23.33;;;4.23;;
56269;SDS011;42176;43.240;27.880;2024-03-29T03:19:00;27.23;;;4.63;;
56269;SDS011;42176;43.240;27.880;2024-03-29T03:21:01;28.60;;;5.67;;
56269;SDS011;42176;43.240;27.880;2024-03-29T03:23:02;28.20;;;5.35;;
56269;SDS011;42176;43.240;27.880;2024-03-29T03:25:03;20.13;;;5.27;;
56269;SDS011;42176;43.240;27.880;2024-03-29T03:27:04;29.13;;;5.13;;
56269;SDS011;42176;43.240;27.880;2024-03-29T03:29:05;23.23;;;4.40;;
56269;SDS011;42176;43.240;27.880;2024-03-29T03:31:08;25.38;;;4.90;;
56269;SDS011;42176;43.240;27.880;2024-03-29T03:33:09;27.42;;;6.30;;
56269;SDS011;42176;43.240;27.880;2024-03-29T03:35:09;38.33;;;8.87;;
56269;SDS011;42176;43.240;27.880;2024-03-29T03:37:10;34.23;;;6.67;;
56269;SDS011;42176;43.240;27.880;2024-03-29T03:39:10;23.77;;;7.77;;
56269;SDS011;42176;43.240;27.880;2024-03-29T03:41:11;29.27;;;5.73;;
56269;SDS011;42176;43.240;27.880;2024-03-29T03:43:12;37.65;;;5.18;;
56269;SDS011;42176;43.240;27.880;2024-03-29T03:45:13;30.53;;;6.30;;
56269;SDS011;42176;43.240;27.880;2024-03-29T03:47:13;19.93;;;5.40;;
56269;SDS011;42176;43.240;27.880;2024-03-29T03:49:14;23.80;;;5.60;;
56269;SDS011;42176;43.240;27.880;2024-03-29T03:51:14;32.70;;;6.20;;
56269;SDS011;42176;43.240;27.880;2024-03-29T03:53:16;24.63;;;5.60;;
56269;SDS011;42176;43.240;27.880;2024-03-29T03:55:16;28.17;;;4.80;;
56269;SDS011;42176;43.240;27.880;2024-03-29T03:57:17;21.60;;;5.10;;
56269;SDS011;42176;43.240;27.880;2024-03-29T03:59:17;29.73;;;4.60;;
56269;SDS011;42176;43.240;27.880;2024-03-29T04:01:18;32.13;;;5.67;;
56269;SDS011;42176;43.240;27.880;2024-03-29T04:03:19;27.90;;;5.83;;
56269;SDS011;42176;43.240;27.880;2024-03-29T04:05:19;24.73;;;6.30;;
56269;SDS011;42176;43.240;27.880;2024-03-29T04:07:21;34.95;;;6.45;;
56269;SDS011;42176;43.240;27.880;2024-03-29T04:09:21;36.50;;;8.13;;
56269;SDS011;42176;43.240;27.880;2024-03-29T04:11:22;30.33;;;7.40;;
56269;SDS011;42176;43.240;27.880;2024-03-29T04:13:22;27.20;;;5.63;;
56269;SDS011;42176;43.240;27.880;2024-03-29T04:15:23;31.50;;;6.57;;
56269;SDS011;42176;43.240;27.880;2024-03-29T04:17:24;30.80;;;5.90;;
56269;SDS011;42176;43.240;27.880;2024-03-29T04:19:24;23.13;;;5.60;;
56269;SDS011;42176;43.240;27.880;2024-03-29T04:21:25;32.43;;;6.07;;
56269;SDS011;42176;43.240;27.880;2024-03-29T04:23:25;28.87;;;5.67;;
56269;SDS011;42176;43.240;27.880;2024-03-29T04:25:26;28.20;;;7.17;;
56269;SDS011;42176;43.240;27.880;2024-03-29T04:27:27;22.63;;;5.47;;
56269;SDS011;42176;43.240;27.880;2024-03-29T04:29:27;29.10;;;5.93;;
56269;SDS011;42176;43.240;27.880;2024-03-29T04:31:28;21.77;;;6.20;;
56269;SDS011;42176;43.240;27.880;2024-03-29T04:33:28;31.27;;;7.90;;
56269;SDS011;42176;43.240;27.880;2024-03-29T04:35:29;40.80;;;8.10;;
56269;SDS011;42176;43.240;27.880;2024-03-29T04:37:29;31.30;;;7.97;;
56269;SDS011;42176;43.240;27.880;2024-03-29T04:39:30;39.87;;;9.17;;
56269;SDS011;42176;43.240;27.880;2024-03-29T04:41:31;29.63;;;7.67;;
56269;SDS011;42176;43.240;27.880;2024-03-29T04:43:50;34.58;;;7.72;;
56269;SDS011;42176;43.240;27.880;2024-03-29T04:45:51;25.33;;;6.20;;
56269;SDS011;42176;43.240;27.880;2024-03-29T04:48:10;38.75;;;7.95;;
56269;SDS011;42176;43.240;27.880;2024-03-29T04:50:11;33.92;;;7.70;;
56269;SDS011;42176;43.240;27.880;2024-03-29T04:52:11;29.80;;;5.97;;
56269;SDS011;42176;43.240;27.880;2024-03-29T04:54:13;23.70;;;5.95;;
56269;SDS011;42176;43.240;27.880;2024-03-29T04:56:13;34.40;;;7.37;;
56269;SDS011;42176;43.240;27.880;2024-03-29T04:58:14;44.13;;;7.13;;
56269;SDS011;42176;43.240;27.880;2024-03-29T05:00:14;27.27;;;7.20;;
56269;SDS011;42176;43.240;27.880;2024-03-29T05:02:15;31.57;;;6.47;;
56269;SDS011;42176;43.240;27.880;2024-03-29T05:04:22;24.63;;;6.53;;
56269;SDS011;42176;43.240;27.880;2024-03-29T05:06:26;26.92;;;7.47;;
56269;SDS011;42176;43.240;27.880;2024-03-29T05:08:27;51.80;;;11.00;;
56269;SDS011;42176;43.240;27.880;2024-03-29T05:10:27;25.70;;;7.03;;
56269;SDS011;42176;43.240;27.880;2024-03-29T05:12:28;48.67;;;9.00;;
56269;SDS011;42176;43.240;27.880;2024-03-29T05:14:28;40.10;;;9.53;;
56269;SDS011;42176;43.240;27.880;2024-03-29T05:16:29;36.60;;;11.87;;
56269;SDS011;42176;43.240;27.880;2024-03-29T05:18:29;36.17;;;9.38;;
56269;SDS011;42176;43.240;27.880;2024-03-29T05:20:30;42.30;;;7.72;;
56269;SDS011;42176;43.240;27.880;2024-03-29T05:22:31;38.78;;;8.30;;
56269;SDS011;42176;43.240;27.880;2024-03-29T05:24:32;27.23;;;6.93;;
56269;SDS011;42176;43.240;27.880;2024-03-29T05:26:32;29.15;;;6.93;;
56269;SDS011;42176;43.240;27.880;2024-03-29T05:28:33;33.60;;;6.03;;
56269;SDS011;42176;43.240;27.880;2024-03-29T05:30:34;30.30;;;5.97;;
56269;SDS011;42176;43.240;27.880;2024-03-29T05:32:35;25.33;;;6.47;;
56269;SDS011;42176;43.240;27.880;2024-03-29T05:34:36;26.02;;;5.55;;
56269;SDS011;42176;43.240;27.880;2024-03-29T05:36:36;27.15;;;5.30;;
56269;SDS011;42176;43.240;27.880;2024-03-29T05:38:37;28.10;;;6.68;;
56269;SDS011;42176;43.240;27.880;2024-03-29T05:40:39;32.42;;;6.63;;
56269;SDS011;42176;43.240;27.880;2024-03-29T05:42:39;27.77;;;6.50;;
56269;SDS011;42176;43.240;27.880;2024-03-29T05:46:40;24.00;;;6.43;;
56269;SDS011;42176;43.240;27.880;2024-03-29T05:50:41;22.73;;;6.53;;
56269;SDS011;42176;43.240;27.880;2024-03-29T05:54:42;26.13;;;8.83;;
56269;SDS011;42176;43.240;27.880;2024-03-29T05:56:44;29.58;;;8.65;;
56269;SDS011;42176;43.240;27.880;2024-03-29T05:58:44;31.67;;;9.00;;
56269;SDS011;42176;43.240;27.880;2024-03-29T06:00:45;28.92;;;10.57;;
56269;SDS011;42176;43.240;27.880;2024-03-29T06:02:46;26.80;;;11.43;;
56269;SDS011;42176;43.240;27.880;2024-03-29T06:04:48;28.70;;;10.90;;
56269;SDS011;42176;43.240;27.880;2024-03-29T06:06:49;34.60;;;11.55;;
56269;SDS011;42176;43.240;27.880;2024-03-29T06:08:50;35.60;;;13.13;;
56269;SDS011;42176;43.240;27.880;2024-03-29T06:10:51;36.33;;;12.35;;
56269;SDS011;42176;43.240;27.880;2024-03-29T06:12:52;35.75;;;13.07;;
56269;SDS011;42176;43.240;27.880;2024-03-29T06:14:53;37.30;;;14.38;;
56269;SDS011;42176;43.240;27.880;2024-03-29T06:17:12;37.40;;;14.80;;
56269;SDS011;42176;43.240;27.880;2024-03-29T06:19:25;41.78;;;14.45;;
56269;SDS011;42176;43.240;27.880;2024-03-29T06:21:27;27.17;;;12.50;;
56269;SDS011;42176;43.240;27.880;2024-03-29T06:23:28;31.95;;;13.65;;
56269;SDS011;42176;43.240;27.880;2024-03-29T06:25:28;25.23;;;12.55;;
56269;SDS011;42176;43.240;27.880;2024-03-29T06:27:29;34.47;;;12.82;;
56269;SDS011;42176;43.240;27.880;2024-03-29T06:29:29;28.75;;;13.63;;
56269;SDS011;42176;43.240;27.880;2024-03-29T06:31:30;38.30;;;13.98;;
56269;SDS011;42176;43.240;27.880;2024-03-29T06:33:31;41.70;;;12.63;;
56269;SDS011;42176;43.240;27.880;2024-03-29T06:35:31;18.58;;;8.60;;
56269;SDS011;42176;43.240;27.880;2024-03-29T06:37:32;27.83;;;7.78;;
56269;SDS011;42176;43.240;27.880;2024-03-29T06:39:32;18.58;;;5.57;;
56269;SDS011;42176;43.240;27.880;2024-03-29T06:41:33;8.07;;;1.70;;
56269;SDS011;42176;43.240;27.880;2024-03-29T06:43:33;19.38;;;2.17;;
56269;SDS011;42176;43.240;27.880;2024-03-29T06:45:34;5.88;;;1.58;;
56269;SDS011;42176;43.240;27.880;2024-03-29T06:49:35;52.13;;;4.33;;
56269;SDS011;42176;43.240;27.880;2024-03-29T06:51:36;4.78;;;1.50;;
56269;SDS011;42176;43.240;27.880;2024-03-29T06:53:39;9.02;;;2.33;;
56269;SDS011;42176;43.240;27.880;2024-03-29T06:57:40;8.00;;;1.37;;
56269;SDS011;42176;43.240;27.880;2024-03-29T07:01:41;30.83;;;3.67;;
56269;SDS011;42176;43.240;27.880;2024-03-29T07:05:42;5.93;;;1.20;;
56269;SDS011;42176;43.240;27.880;2024-03-29T07:09:46;33.08;;;2.17;;
56269;SDS011;42176;43.240;27.880;2024-03-29T07:11:47;7.53;;;1.38;;
56269;SDS011;42176;43.240;27.880;2024-03-29T07:13:48;4.75;;;1.77;;
56269;SDS011;42176;43.240;27.880;2024-03-29T07:15:51;4.78;;;1.20;;
56269;SDS011;42176;43.240;27.880;2024-03-29T07:17:52;6.53;;;1.70;;
56269;SDS011;42176;43.240;27.880;2024-03-29T07:19:53;7.55;;;1.25;;
56269;SDS011;42176;43.240;27.880;2024-03-29T07:21:54;6.43;;;0.88;;
56269;SDS011;42176;43.240;27.880;2024-03-29T07:25:58;4.97;;;1.20;;
56269;SDS011;42176;43.240;27.880;2024-03-29T07:28:02;3.08;;;0.93;;
56269;SDS011;42176;43.240;27.880;2024-03-29T07:30:03;7.38;;;1.33;;
56269;SDS011;42176;43.240;27.880;2024-03-29T07:32:05;10.05;;;1.58;;
56269;SDS011;42176;43.240;27.880;2024-03-29T07:34:06;7.05;;;1.10;;
56269;SDS011;42176;43.240;27.880;2024-03-29T07:36:06;8.57;;;1.05;;
56269;SDS011;42176;43.240;27.880;2024-03-29T07:38:09;4.10;;;1.33;;
56269;SDS011;42176;43.240;27.880;2024-03-29T07:40:10;13.98;;;1.27;;
56269;SDS011;42176;43.240;27.880;2024-03-29T07:42:12;9.43;;;1.40;;
56269;SDS011;42176;43.240;27.880;2024-03-29T07:44:12;6.18;;;1.30;;
56269;SDS011;42176;43.240;27.880;2024-03-29T07:48:14;6.20;;;1.00;;
56269;SDS011;42176;43.240;27.880;2024-03-29T07:50:16;5.25;;;1.77;;
56269;SDS011;42176;43.240;27.880;2024-03-29T07:52:16;14.93;;;3.15;;
56269;SDS011;42176;43.240;27.880;2024-03-29T07:54:17;37.58;;;2.60;;
56269;SDS011;42176;43.240;27.880;2024-03-29T07:56:17;7.97;;;1.30;;
56269;SDS011;42176;43.240;27.880;2024-03-29T07:58:18;2.15;;;1.20;;
56269;SDS011;42176;43.240;27.880;2024-03-29T08:00:19;3.78;;;1.30;;
56269;SDS011;42176;43.240;27.880;2024-03-29T08:02:19;5.38;;;1.05;;
56269;SDS011;42176;43.240;27.880;2024-03-29T08:04:20;1.90;;;0.80;;
56269;SDS011;42176;43.240;27.880;2024-03-29T08:06:21;4.47;;;0.90;;
56269;SDS011;42176;43.240;27.880;2024-03-29T08:08:23;3.17;;;0.80;;
56269;SDS011;42176;43.240;27.880;2024-03-29T08:10:25;2.25;;;0.85;;
56269;SDS011;42176;43.240;27.880;2024-03-29T08:12:25;17.02;;;1.63;;
56269;SDS011;42176;43.240;27.880;2024-03-29T08:14:26;7.03;;;1.10;;
56269;SDS011;42176;43.240;27.880;2024-03-29T08:16:27;2.30;;;1.20;;
56269;SDS011;42176;43.240;27.880;2024-03-29T08:18:29;2.53;;;0.73;;
56269;SDS011;42176;43.240;27.880;2024-03-29T08:20:31;2.80;;;1.50;;
56269;SDS011;42176;43.240;27.880;2024-03-29T08:22:32;3.30;;;1.25;;
56269;SDS011;42176;43.240;27.880;2024-03-29T08:24:35;8.00;;;1.45;;
56269;SDS011;42176;43.240;27.880;2024-03-29T08:26:36;4.20;;;1.27;;
56269;SDS011;42176;43.240;27.880;2024-03-29T08:28:37;4.05;;;1.00;;
56269;SDS011;42176;43.240;27.880;2024-03-29T08:30:37;4.70;;;1.13;;
56269;SDS011;42176;43.240;27.880;2024-03-29T08:32:38;8.27;;;1.60;;
56269;SDS011;42176;43.240;27.880;2024-03-29T08:34:38;11.95;;;1.45;;
56269;SDS011;42176;43.240;27.880;2024-03-29T08:36:39;4.20;;;1.30;;
56269;SDS011;42176;43.240;27.880;2024-03-29T08:38:40;7.43;;;0.95;;
56269;SDS011;42176;43.240;27.880;2024-03-29T08:40:43;4.63;;;0.93;;
56269;SDS011;42176;43.240;27.880;2024-03-29T08:42:46;8.63;;;1.02;;
56269;SDS011;42176;43.240;27.880;2024-03-29T08:44:47;18.75;;;2.28;;
56269;SDS011;42176;43.240;27.880;2024-03-29T08:46:47;11.35;;;1.50;;
56269;SDS011;42176;43.240;27.880;2024-03-29T08:48:48;5.93;;;0.90;;
56269;SDS011;42176;43.240;27.880;2024-03-29T08:50:48;5.70;;;1.23;;
56269;SDS011;42176;43.240;27.880;2024-03-29T08:54:49;2.90;;;0.90;;
56269;SDS011;42176;43.240;27.880;2024-03-29T08:58:50;3.10;;;1.20;;
56269;SDS011;42176;43.240;27.880;2024-03-29T09:02:58;7.65;;;1.02;;
56269;SDS011;42176;43.240;27.880;2024-03-29T09:04:59;4.15;;;1.40;;
56269;SDS011;42176;43.240;27.880;2024-03-29T09:09:02;4.32;;;1.15;;
56269;SDS011;42176;43.240;27.880;2024-03-29T09:13:03;2.70;;;0.90;;
56269;SDS011;42176;43.240;27.880;2024-03-29T09:15:07;3.00;;;0.88;;
56269;SDS011;42176;43.240;27.880;2024-03-29T09:17:13;15.30;;;1.25;;
56269;SDS011;42176;43.240;27.880;2024-03-29T09:19:13;17.50;;;1.58;;
56269;SDS011;42176;43.240;27.880;2024-03-29T09:21:14;6.97;;;0.90;;
56269;SDS011;42176;43.240;27.880;2024-03-29T09:23:14;2.53;;;0.77;;
56269;SDS011;42176;43.240;27.880;2024-03-29T09:25:20;9.23;;;1.02;;
56269;SDS011;42176;43.240;27.880;2024-03-29T09:27:21;6.93;;;0.70;;
56269;SDS011;42176;43.240;27.880;2024-03-29T09:29:21;38.80;;;2.80;;
56269;SDS011;42176;43.240;27.880;2024-03-29T09:31:22;13.75;;;1.13;;
56269;SDS011;42176;43.240;27.880;2024-03-29T09:33:23;4.15;;;0.55;;
56269;SDS011;42176;43.240;27.880;2024-03-29T09:35:23;4.75;;;0.65;;
56269;SDS011;42176;43.240;27.880;2024-03-29T09:37:24;4.82;;;0.75;;
56269;SDS011;42176;43.240;27.880;2024-03-29T09:39:25;3.75;;;0.73;;
56269;SDS011;42176;43.240;27.880;2024-03-29T09:41:26;8.90;;;1.90;;
56269;SDS011;42176;43.240;27.880;2024-03-29T09:43:28;7.85;;;1.10;;
56269;SDS011;42176;43.240;27.880;2024-03-29T09:45:34;6.57;;;0.75;;
56269;SDS011;42176;43.240;27.880;2024-03-29T09:47:36;4.68;;;0.80;;
56269;SDS011;42176;43.240;27.880;2024-03-29T09:49:39;6.78;;;0.60;;
56269;SDS011;42176;43.240;27.880;2024-03-29T09:51:44;10.13;;;0.90;;
56269;SDS011;42176;43.240;27.880;2024-03-29T09:55:46;5.33;;;0.67;;
56269;SDS011;42176;43.240;27.880;2024-03-29T09:57:47;6.20;;;1.25;;
56269;SDS011;42176;43.240;27.880;2024-03-29T09:59:48;7.03;;;0.88;;
56269;SDS011;42176;43.240;27.880;2024-03-29T10:01:49;9.15;;;0.80;;
56269;SDS011;42176;43.240;27.880;2024-03-29T10:03:51;2.78;;;0.93;;
56269;SDS011;42176;43.240;27.880;2024-03-29T10:05:53;5.55;;;1.20;;
56269;SDS011;42176;43.240;27.880;2024-03-29T10:07:55;4.57;;;0.95;;
56269;SDS011;42176;43.240;27.880;2024-03-29T10:09:56;7.85;;;1.40;;
56269;SDS011;42176;43.240;27.880;2024-03-29T10:11:59;4.18;;;1.00;;
56269;SDS011;42176;43.240;27.880;2024-03-29T10:13:59;3.38;;;1.13;;
56269;SDS011;42176;43.240;27.880;2024-03-29T10:16:00;65.65;;;5.38;;
56269;SDS011;42176;43.240;27.880;2024-03-29T10:18:02;7.68;;;1.00;;
56269;SDS011;42176;43.240;27.880;2024-03-29T10:20:04;6.00;;;1.58;;
56269;SDS011;42176;43.240;27.880;2024-03-29T10:22:06;10.05;;;1.02;;
56269;SDS011;42176;43.240;27.880;2024-03-29T10:24:11;6.15;;;0.85;;
56269;SDS011;42176;43.240;27.880;2024-03-29T10:26:15;10.27;;;1.23;;
56269;SDS011;42176;43.240;27.880;2024-03-29T10:28:15;6.13;;;1.00;;
56269;SDS011;42176;43.240;27.880;2024-03-29T10:30:18;6.80;;;1.08;;
56269;SDS011;42176;43.240;27.880;2024-03-29T10:32:21;7.38;;;0.55;;
56269;SDS011;42176;43.240;27.880;2024-03-29T10:36:25;2.72;;;0.43;;
56269;SDS011;42176;43.240;27.880;2024-03-29T10:38:26;3.28;;;0.98;;
56269;SDS011;42176;43.240;27.880;2024-03-29T10:40:27;2.45;;;0.50;;
56269;SDS011;42176;43.240;27.880;2024-03-29T10:42:29;2.80;;;0.80;;
56269;SDS011;42176;43.240;27.880;2024-03-29T10:44:33;7.22;;;0.90;;
56269;SDS011;42176;43.240;27.880;2024-03-29T10:46:36;4.40;;;0.65;;
56269;SDS011;42176;43.240;27.880;2024-03-29T10:48:38;5.53;;;0.65;;
56269;SDS011;42176;43.240;27.880;2024-03-29T10:50:39;5.07;;;0.52;;
56269;SDS011;42176;43.240;27.880;2024-03-29T10:52:41;5.93;;;0.80;;
56269;SDS011;42176;43.240;27.880;2024-03-29T10:54:45;5.75;;;1.45;;
56269;SDS011;42176;43.240;27.880;2024-03-29T10:56:47;4.15;;;0.95;;
56269;SDS011;42176;43.240;27.880;2024-03-29T10:58:59;8.30;;;1.05;;
56269;SDS011;42176;43.240;27.880;2024-03-29T11:01:19;5.13;;;0.82;;
56269;SDS011;42176;43.240;27.880;2024-03-29T11:05:50;5.35;;;0.70;;
56269;SDS011;42176;43.240;27.880;2024-03-29T11:07:52;15.20;;;1.23;;
56269;SDS011;42176;43.240;27.880;2024-03-29T11:09:55;3.88;;;0.98;;
56269;SDS011;42176;43.240;27.880;2024-03-29T11:12:01;10.45;;;0.98;;
56269;SDS011;42176;43.240;27.880;2024-03-29T11:14:06;5.05;;;0.60;;
56269;SDS011;42176;43.240;27.880;2024-03-29T11:16:09;5.38;;;0.80;;
56269;SDS011;42176;43.240;27.880;2024-03-29T11:18:11;12.30;;;2.35;;
56269;SDS011;42176;43.240;27.880;2024-03-29T11:20:13;10.30;;;1.02;;
56269;SDS011;42176;43.240;27.880;2024-03-29T11:22:18;3.17;;;0.85;;
56269;SDS011;42176;43.240;27.880;2024-03-29T11:24:18;6.38;;;1.40;;
56269;SDS011;42176;43.240;27.880;2024-03-29T11:26:23;5.95;;;1.08;;
56269;SDS011;42176;43.240;27.880;2024-03-29T11:28:26;5.03;;;1.05;;
56269;SDS011;42176;43.240;27.880;2024-03-29T11:30:32;6.60;;;0.82;;
56269;SDS011;42176;43.240;27.880;2024-03-29T11:32:49;14.52;;;1.20;;
56269;SDS011;42176;43.240;27.880;2024-03-29T11:34:55;61.25;;;4.53;;
56269;SDS011;42176;43.240;27.880;2024-03-29T11:37:05;8.27;;;1.60;;
56269;SDS011;42176;43.240;27.880;2024-03-29T11:39:22;7.03;;;0.80;;
56269;SDS011;42176;43.240;27.880;2024-03-29T11:41:26;2.90;;;0.70;;
56269;SDS011;42176;43.240;27.880;2024-03-29T11:43:30;3.28;;;0.75;;
56269;SDS011;42176;43.240;27.880;2024-03-29T11:45:31;5.55;;;0.73;;
56269;SDS011;42176;43.240;27.880;2024-03-29T11:47:34;12.95;;;1.40;;
56269;SDS011;42176;43.240;27.880;2024-03-29T11:51:36;2.80;;;1.03;;
56269;SDS011;42176;43.240;27.880;2024-03-29T11:53:36;14.45;;;1.25;;
56269;SDS011;42176;43.240;27.880;2024-03-29T11:55:37;14.50;;;4.78;;
56269;SDS011;42176;43.240;27.880;2024-03-29T11:57:38;10.55;;;3.70;;
56269;SDS011;42176;43.240;27.880;2024-03-29T11:59:40;7.30;;;2.45;;
56269;SDS011;42176;43.240;27.880;2024-03-29T12:01:41;17.58;;;1.50;;
56269;SDS011;42176;43.240;27.880;2024-03-29T12:03:42;6.70;;;0.88;;
56269;SDS011;42176;43.240;27.880;2024-03-29T12:05:44;9.82;;;0.73;;
56269;SDS011;42176;43.240;27.880;2024-03-29T12:07:45;10.60;;;1.63;;
56269;SDS011;42176;43.240;27.880;2024-03-29T12:11:47;10.27;;;0.90;;
56269;SDS011;42176;43.240;27.880;2024-03-29T12:13:48;4.78;;;1.10;;
56269;SDS011;42176;43.240;27.880;2024-03-29T12:15:49;3.50;;;0.70;;
56269;SDS011;42176;43.240;27.880;2024-03-29T12:17:53;10.07;;;1.43;;
56269;SDS011;42176;43.240;27.880;2024-03-29T12:19:57;11.77;;;2.35;;
56269;SDS011;42176;43.240;27.880;2024-03-29T12:22:04;4.07;;;0.65;;
56269;SDS011;42176;43.240;27.880;2024-03-29T12:24:04;10.23;;;1.38;;
56269;SDS011;42176;43.240;27.880;2024-03-29T12:26:06;12.68;;;1.35;;
56269;SDS011;42176;43.240;27.880;2024-03-29T12:28:07;8.77;;;1.10;;
56269;SDS011;42176;43.240;27.880;2024-03-29T12:30:07;4.70;;;0.80;;
56269;SDS011;42176;43.240;27.880;2024-03-29T12:32:09;10.20;;;1.10;;
56269;SDS011;42176;43.240;27.880;2024-03-29T12:34:09;5.88;;;0.90;;
56269;SDS011;42176;43.240;27.880;2024-03-29T12:36:11;19.90;;;2.07;;
56269;SDS011;42176;43.240;27.880;2024-03-29T12:38:12;18.75;;;1.50;;